createdAt,value
2022-12-29T00:07:22.135Z,6.60
2022-12-29T00:15:40.001Z,6.50
2022-12-29T00:24:00.403Z,6.60
2022-12-29T00:32:18.359Z,5.90
2022-12-29T00:40:38.714Z,6.10
2022-12-29T00:48:56.470Z,5.80
2022-12-29T00:57:04.946Z,6.00
2022-12-29T01:05:10.970Z,5.80
2022-12-29T01:13:19.594Z,5.90
2022-12-29T01:21:25.167Z,6.00
2022-12-29T01:29:33.220Z,5.70
2022-12-29T01:37:38.623Z,5.30
2022-12-29T01:45:52.259Z,5.40
2022-12-29T01:53:59.738Z,5.30
2022-12-29T02:02:08.570Z,5.40
2022-12-29T02:10:14.057Z,5.40
2022-12-29T02:18:36.440Z,5.60
2022-12-29T02:27:12.308Z,5.40
2022-12-29T02:35:32.032Z,5.10
2022-12-29T02:43:43.516Z,5.50
2022-12-29T02:51:56.775Z,5.40
2022-12-29T03:00:08.764Z,5.40
2022-12-29T03:08:27.047Z,5.30
2022-12-29T03:16:40.345Z,5.30
2022-12-29T03:24:52.117Z,5.20
2022-12-29T03:33:02.547Z,5.30
2022-12-29T03:41:18.653Z,4.80
2022-12-29T03:49:23.807Z,4.80
2022-12-29T03:57:32.924Z,4.70
2022-12-29T04:05:42.624Z,4.70
2022-12-29T04:13:50.833Z,4.40
2022-12-29T04:22:00.531Z,4.40
2022-12-29T04:30:10.865Z,4.40
2022-12-29T04:38:31.748Z,4.60
2022-12-29T04:46:47.029Z,4.80
2022-12-29T04:55:08.443Z,4.80
2022-12-29T05:03:16.812Z,4.80
2022-12-29T05:11:24.281Z,5.20
2022-12-29T05:19:34.825Z,4.70
2022-12-29T05:27:40.812Z,4.90
2022-12-29T05:36:01.219Z,5.10
2022-12-29T05:44:07.257Z,4.80
2022-12-29T05:52:34.005Z,5.00
2022-12-29T06:00:39.633Z,4.90
2022-12-29T06:08:48.241Z,4.30
2022-12-29T06:16:53.814Z,3.80
2022-12-29T06:25:05.162Z,4.20
2022-12-29T06:33:13.140Z,4.50
2022-12-29T06:41:23.553Z,4.80
2022-12-29T06:49:49.789Z,4.60
2022-12-29T06:57:58.547Z,4.80
2022-12-29T07:06:04.015Z,4.90
2022-12-29T07:14:12.405Z,4.70
2022-12-29T07:22:18.153Z,4.90
2022-12-29T07:30:26.502Z,5.20
2022-12-29T07:38:32.852Z,5.70
2022-12-29T07:46:56.343Z,6.40
2022-12-29T07:55:02.871Z,6.50
2022-12-29T08:03:11.097Z,7.00
2022-12-29T08:11:16.791Z,11.00
2022-12-29T08:19:25.665Z,13.70
2022-12-29T08:27:31.563Z,15.60
2022-12-29T08:35:43.158Z,16.20
2022-12-29T08:43:51.382Z,18.70
2022-12-29T08:51:59.646Z,17.10
2022-12-29T09:00:09.274Z,19.30
2022-12-29T09:08:23.883Z,19.80
2022-12-29T09:16:34.752Z,21.50
2022-12-29T09:26:07.553Z,23.00
2022-12-29T10:35:24.410Z,15.30
2022-12-29T10:43:52.462Z,13.50
2022-12-29T10:52:05.168Z,12.80
2022-12-29T11:00:24.265Z,11.30
2022-12-29T11:08:39.355Z,11.70
2022-12-29T11:16:47.481Z,11.40
2022-12-29T11:25:08.960Z,11.70
2022-12-29T11:33:24.688Z,11.40
2022-12-29T11:41:36.031Z,11.10
2022-12-29T11:49:42.723Z,11.40
2022-12-29T11:57:51.273Z,11.70
2022-12-29T12:06:02.844Z,11.60
2022-12-29T12:14:22.039Z,11.90
2022-12-29T12:22:58.525Z,11.30
2022-12-29T12:31:09.475Z,11.10
2022-12-29T12:39:30.666Z,11.10
2022-12-29T12:47:56.617Z,11.00
2022-12-29T12:56:27.759Z,11.50
2022-12-29T13:05:09.027Z,11.20
2022-12-29T13:13:38.070Z,11.00
2022-12-29T13:22:05.714Z,11.10
2022-12-29T13:30:17.016Z,11.30
2022-12-29T13:38:33.036Z,11.40
2022-12-29T13:46:46.853Z,11.50
2022-12-29T13:55:04.111Z,11.60
2022-12-29T14:03:46.803Z,11.60
2022-12-29T14:11:55.648Z,11.60
2022-12-29T14:20:03.697Z,11.60
2022-12-29T14:28:27.719Z,11.90
2022-12-29T14:36:40.458Z,11.90
2022-12-29T14:44:59.820Z,12.10
2022-12-29T14:53:09.546Z,11.80
2022-12-29T15:01:26.607Z,11.70
2022-12-29T15:09:39.874Z,11.60
2022-12-29T15:17:48.904Z,11.50
2022-12-29T15:25:59.927Z,11.40
2022-12-29T15:34:15.842Z,11.30
2022-12-29T15:42:43.813Z,11.20
2022-12-29T15:50:52.677Z,11.10
2022-12-29T15:58:59.579Z,10.80
2022-12-29T16:07:11.016Z,10.90
2022-12-29T16:15:18.126Z,10.70
2022-12-29T16:23:36.617Z,10.30
2022-12-29T16:32:01.928Z,10.20
2022-12-29T16:40:32.450Z,10.30
2022-12-29T16:48:41.194Z,10.30
2022-12-29T16:56:50.399Z,9.80
2022-12-29T17:04:55.947Z,9.70
2022-12-29T17:13:07.133Z,9.90
2022-12-29T17:21:14.059Z,9.80
2022-12-29T17:29:28.852Z,10.00
2022-12-29T17:37:37.862Z,9.60
2022-12-29T17:54:55.926Z,9.60
2022-12-29T18:12:43.770Z,9.30
2022-12-29T18:20:59.318Z,9.00
2022-12-29T18:29:37.056Z,9.10
2022-12-29T18:46:50.265Z,8.00
2022-12-29T19:04:30.832Z,8.00
2022-12-29T19:21:26.738Z,7.60
2022-12-29T19:29:34.944Z,7.00
2022-12-29T19:37:44.348Z,7.20
2022-12-29T19:45:51.590Z,7.40
2022-12-29T20:03:47.107Z,7.90
2022-12-29T20:12:13.856Z,7.90
2022-12-29T20:20:25.148Z,8.20
2022-12-29T20:29:13.859Z,8.40
2022-12-29T20:37:23.162Z,8.60
2022-12-29T20:55:11.967Z,8.80
2022-12-29T21:03:20.963Z,9.00
2022-12-29T21:11:27.055Z,9.00
2022-12-29T21:19:35.407Z,8.90
2022-12-29T21:27:40.802Z,9.10
2022-12-29T21:35:53.564Z,8.60
2022-12-29T21:44:11.386Z,8.30
2022-12-29T22:09:44.489Z,8.50
2022-12-29T22:35:18.039Z,7.30
2022-12-29T22:43:24.627Z,7.30
2022-12-29T22:51:32.894Z,7.10
2022-12-29T22:59:50.091Z,7.00
2022-12-29T23:07:58.018Z,7.10
2022-12-29T23:51:08.984Z,7.50
2022-12-29T23:59:14.400Z,7.00
